sensor_id;sensor_type;location;lat;lon;timestamp;P1;durP1;ratioP1;P2;durP2;ratioP2
37805;SDS011;25082;50.870;0.022;2023-11-18T00:00:22;5.63;;;2.42;;
37805;SDS011;25082;50.870;0.022;2023-11-18T00:02:49;5.50;;;2.75;;
37805;SDS011;25082;50.870;0.022;2023-11-18T00:05:15;6.20;;;2.75;;
37805;SDS011;25082;50.870;0.022;2023-11-18T00:07:41;3.17;;;1.73;;
37805;SDS011;25082;50.870;0.022;2023-11-18T00:10:07;4.75;;;2.28;;
37805;SDS011;25082;50.870;0.022;2023-11-18T00:12:33;6.03;;;2.20;;
37805;SDS011;25082;50.870;0.022;2023-11-18T00:15:00;4.18;;;1.70;;
37805;SDS011;25082;50.870;0.022;2023-11-18T00:17:32;4.82;;;2.33;;
37805;SDS011;25082;50.870;0.022;2023-11-18T00:19:58;3.05;;;1.75;;
37805;SDS011;25082;50.870;0.022;2023-11-18T00:22:24;4.80;;;2.33;;
37805;SDS011;25082;50.870;0.022;2023-11-18T00:24:49;3.70;;;2.28;;
37805;SDS011;25082;50.870;0.022;2023-11-18T00:27:17;4.80;;;2.10;;
37805;SDS011;25082;50.870;0.022;2023-11-18T00:29:43;4.00;;;1.70;;
37805;SDS011;25082;50.870;0.022;2023-11-18T00:32:09;2.78;;;1.65;;
37805;SDS011;25082;50.870;0.022;2023-11-18T00:34:34;3.47;;;1.95;;
37805;SDS011;25082;50.870;0.022;2023-11-18T00:37:00;5.03;;;2.20;;
37805;SDS011;25082;50.870;0.022;2023-11-18T00:39:26;3.15;;;1.40;;
37805;SDS011;25082;50.870;0.022;2023-11-18T00:41:54;3.28;;;1.58;;
37805;SDS011;25082;50.870;0.022;2023-11-18T00:44:23;2.53;;;1.38;;
37805;SDS011;25082;50.870;0.022;2023-11-18T00:46:49;2.28;;;1.35;;
37805;SDS011;25082;50.870;0.022;2023-11-18T00:49:14;3.10;;;1.63;;
37805;SDS011;25082;50.870;0.022;2023-11-18T00:51:40;2.70;;;1.40;;
37805;SDS011;25082;50.870;0.022;2023-11-18T00:54:06;2.13;;;1.13;;
37805;SDS011;25082;50.870;0.022;2023-11-18T00:56:32;3.33;;;1.40;;
37805;SDS011;25082;50.870;0.022;2023-11-18T00:58:58;3.85;;;1.40;;
37805;SDS011;25082;50.870;0.022;2023-11-18T01:01:24;2.45;;;1.08;;
37805;SDS011;25082;50.870;0.022;2023-11-18T01:03:50;3.70;;;1.10;;
37805;SDS011;25082;50.870;0.022;2023-11-18T01:06:15;3.78;;;1.58;;
37805;SDS011;25082;50.870;0.022;2023-11-18T01:08:45;3.05;;;1.23;;
37805;SDS011;25082;50.870;0.022;2023-11-18T01:11:15;3.78;;;1.63;;
37805;SDS011;25082;50.870;0.022;2023-11-18T01:13:44;3.15;;;1.10;;
37805;SDS011;25082;50.870;0.022;2023-11-18T01:16:11;3.50;;;1.48;;
37805;SDS011;25082;50.870;0.022;2023-11-18T01:18:36;5.60;;;1.30;;
37805;SDS011;25082;50.870;0.022;2023-11-18T01:21:02;3.03;;;1.40;;
37805;SDS011;25082;50.870;0.022;2023-11-18T01:23:28;4.50;;;1.42;;
37805;SDS011;25082;50.870;0.022;2023-11-18T01:25:54;3.45;;;1.48;;
37805;SDS011;25082;50.870;0.022;2023-11-18T01:28:21;4.35;;;1.67;;
37805;SDS011;25082;50.870;0.022;2023-11-18T01:30:47;3.42;;;1.45;;
37805;SDS011;25082;50.870;0.022;2023-11-18T01:33:13;3.22;;;1.27;;
37805;SDS011;25082;50.870;0.022;2023-11-18T01:35:39;4.60;;;1.70;;
37805;SDS011;25082;50.870;0.022;2023-11-18T01:38:05;4.70;;;1.60;;
37805;SDS011;25082;50.870;0.022;2023-11-18T01:40:32;2.88;;;1.20;;
37805;SDS011;25082;50.870;0.022;2023-11-18T01:42:58;2.22;;;1.20;;
37805;SDS011;25082;50.870;0.022;2023-11-18T01:45:24;2.13;;;0.90;;
37805;SDS011;25082;50.870;0.022;2023-11-18T01:47:51;4.25;;;1.42;;
37805;SDS011;25082;50.870;0.022;2023-11-18T01:50:17;2.45;;;1.27;;
37805;SDS011;25082;50.870;0.022;2023-11-18T01:52:44;3.47;;;1.10;;
37805;SDS011;25082;50.870;0.022;2023-11-18T01:55:11;4.82;;;1.25;;
37805;SDS011;25082;50.870;0.022;2023-11-18T01:57:38;2.92;;;1.10;;
37805;SDS011;25082;50.870;0.022;2023-11-18T02:00:08;2.72;;;1.15;;
37805;SDS011;25082;50.870;0.022;2023-11-18T02:02:36;2.63;;;1.25;;
37805;SDS011;25082;50.870;0.022;2023-11-18T02:05:03;3.33;;;1.15;;
37805;SDS011;25082;50.870;0.022;2023-11-18T02:07:33;1.85;;;0.80;;
37805;SDS011;25082;50.870;0.022;2023-11-18T02:10:01;2.75;;;0.82;;
37805;SDS011;25082;50.870;0.022;2023-11-18T02:15:16;3.65;;;1.00;;
37805;SDS011;25082;50.870;0.022;2023-11-18T02:17:43;2.45;;;1.10;;
37805;SDS011;25082;50.870;0.022;2023-11-18T02:20:10;3.85;;;1.02;;
37805;SDS011;25082;50.870;0.022;2023-11-18T02:22:42;3.08;;;0.98;;
37805;SDS011;25082;50.870;0.022;2023-11-18T02:25:09;2.53;;;1.00;;
37805;SDS011;25082;50.870;0.022;2023-11-18T02:27:40;1.83;;;0.80;;
37805;SDS011;25082;50.870;0.022;2023-11-18T02:30:06;2.10;;;0.82;;
37805;SDS011;25082;50.870;0.022;2023-11-18T02:32:39;3.67;;;1.30;;
37805;SDS011;25082;50.870;0.022;2023-11-18T02:35:13;1.52;;;1.08;;
37805;SDS011;25082;50.870;0.022;2023-11-18T02:37:47;3.67;;;1.27;;
37805;SDS011;25082;50.870;0.022;2023-11-18T02:40:26;2.85;;;0.90;;
37805;SDS011;25082;50.870;0.022;2023-11-18T02:43:00;3.60;;;0.70;;
37805;SDS011;25082;50.870;0.022;2023-11-18T02:45:30;1.33;;;0.82;;
37805;SDS011;25082;50.870;0.022;2023-11-18T02:47:57;2.15;;;0.50;;
37805;SDS011;25082;50.870;0.022;2023-11-18T02:50:26;2.15;;;0.80;;
37805;SDS011;25082;50.870;0.022;2023-11-18T02:52:55;1.90;;;0.90;;
37805;SDS011;25082;50.870;0.022;2023-11-18T02:55:20;3.30;;;0.75;;
37805;SDS011;25082;50.870;0.022;2023-11-18T02:57:48;2.50;;;0.60;;
37805;SDS011;25082;50.870;0.022;2023-11-18T03:00:17;2.65;;;0.57;;
37805;SDS011;25082;50.870;0.022;2023-11-18T03:02:46;2.25;;;0.85;;
37805;SDS011;25082;50.870;0.022;2023-11-18T03:05:13;2.95;;;0.80;;
37805;SDS011;25082;50.870;0.022;2023-11-18T03:07:43;2.10;;;0.88;;
37805;SDS011;25082;50.870;0.022;2023-11-18T03:10:17;2.25;;;0.70;;
37805;SDS011;25082;50.870;0.022;2023-11-18T03:15:13;3.22;;;1.50;;
37805;SDS011;25082;50.870;0.022;2023-11-18T03:17:42;2.70;;;0.88;;
37805;SDS011;25082;50.870;0.022;2023-11-18T03:20:13;2.25;;;0.55;;
37805;SDS011;25082;50.870;0.022;2023-11-18T03:22:45;1.70;;;0.63;;
37805;SDS011;25082;50.870;0.022;2023-11-18T03:25:11;2.22;;;0.80;;
37805;SDS011;25082;50.870;0.022;2023-11-18T03:27:38;3.63;;;1.50;;
37805;SDS011;25082;50.870;0.022;2023-11-18T03:30:04;1.08;;;0.50;;
37805;SDS011;25082;50.870;0.022;2023-11-18T03:32:31;3.20;;;0.95;;
37805;SDS011;25082;50.870;0.022;2023-11-18T03:34:57;2.30;;;0.65;;
37805;SDS011;25082;50.870;0.022;2023-11-18T03:37:26;1.17;;;0.55;;
37805;SDS011;25082;50.870;0.022;2023-11-18T03:39:52;2.10;;;0.60;;
37805;SDS011;25082;50.870;0.022;2023-11-18T03:42:18;1.20;;;0.55;;
37805;SDS011;25082;50.870;0.022;2023-11-18T03:44:44;2.30;;;0.63;;
37805;SDS011;25082;50.870;0.022;2023-11-18T03:47:15;1.33;;;0.57;;
37805;SDS011;25082;50.870;0.022;2023-11-18T03:49:41;1.60;;;0.60;;
37805;SDS011;25082;50.870;0.022;2023-11-18T03:52:07;2.42;;;0.68;;
37805;SDS011;25082;50.870;0.022;2023-11-18T03:54:33;2.97;;;1.48;;
37805;SDS011;25082;50.870;0.022;2023-11-18T03:56:58;2.50;;;0.52;;
37805;SDS011;25082;50.870;0.022;2023-11-18T03:59:24;1.10;;;0.55;;
37805;SDS011;25082;50.870;0.022;2023-11-18T04:01:50;1.45;;;0.80;;
37805;SDS011;25082;50.870;0.022;2023-11-18T04:04:17;2.67;;;0.77;;
37805;SDS011;25082;50.870;0.022;2023-11-18T04:06:43;2.63;;;1.00;;
37805;SDS011;25082;50.870;0.022;2023-11-18T04:09:09;0.85;;;0.52;;
37805;SDS011;25082;50.870;0.022;2023-11-18T04:11:35;1.15;;;0.88;;
37805;SDS011;25082;50.870;0.022;2023-11-18T04:14:01;1.50;;;0.60;;
37805;SDS011;25082;50.870;0.022;2023-11-18T04:16:30;3.13;;;0.90;;
37805;SDS011;25082;50.870;0.022;2023-11-18T04:18:56;1.80;;;0.70;;
37805;SDS011;25082;50.870;0.022;2023-11-18T04:21:22;1.83;;;0.70;;
37805;SDS011;25082;50.870;0.022;2023-11-18T04:23:47;3.90;;;1.30;;
37805;SDS011;25082;50.870;0.022;2023-11-18T04:26:13;3.28;;;0.85;;
37805;SDS011;25082;50.870;0.022;2023-11-18T04:28:39;1.23;;;0.73;;
37805;SDS011;25082;50.870;0.022;2023-11-18T04:31:05;1.55;;;0.70;;
37805;SDS011;25082;50.870;0.022;2023-11-18T04:33:31;1.40;;;0.50;;
37805;SDS011;25082;50.870;0.022;2023-11-18T04:35:57;3.65;;;1.00;;
37805;SDS011;25082;50.870;0.022;2023-11-18T04:38:23;2.35;;;0.70;;
37805;SDS011;25082;50.870;0.022;2023-11-18T04:40:50;2.05;;;0.80;;
37805;SDS011;25082;50.870;0.022;2023-11-18T04:43:16;3.88;;;1.13;;
37805;SDS011;25082;50.870;0.022;2023-11-18T04:45:42;2.90;;;0.93;;
37805;SDS011;25082;50.870;0.022;2023-11-18T04:48:08;3.33;;;0.60;;
37805;SDS011;25082;50.870;0.022;2023-11-18T04:50:34;2.33;;;0.50;;
37805;SDS011;25082;50.870;0.022;2023-11-18T04:53:00;1.85;;;1.00;;
37805;SDS011;25082;50.870;0.022;2023-11-18T04:55:25;3.78;;;1.00;;
37805;SDS011;25082;50.870;0.022;2023-11-18T04:57:52;3.63;;;0.80;;
37805;SDS011;25082;50.870;0.022;2023-11-18T05:00:17;0.77;;;0.50;;
37805;SDS011;25082;50.870;0.022;2023-11-18T05:02:44;2.72;;;0.70;;
37805;SDS011;25082;50.870;0.022;2023-11-18T05:05:14;2.65;;;1.13;;
37805;SDS011;25082;50.870;0.022;2023-11-18T05:07:41;3.40;;;0.80;;
37805;SDS011;25082;50.870;0.022;2023-11-18T05:10:07;2.80;;;0.70;;
37805;SDS011;25082;50.870;0.022;2023-11-18T05:12:35;3.00;;;1.20;;
37805;SDS011;25082;50.870;0.022;2023-11-18T05:15:05;1.88;;;0.85;;
37805;SDS011;25082;50.870;0.022;2023-11-18T05:17:36;2.35;;;0.52;;
37805;SDS011;25082;50.870;0.022;2023-11-18T05:20:02;5.35;;;1.10;;
37805;SDS011;25082;50.870;0.022;2023-11-18T05:22:29;4.03;;;1.23;;
37805;SDS011;25082;50.870;0.022;2023-11-18T05:24:54;4.40;;;1.05;;
37805;SDS011;25082;50.870;0.022;2023-11-18T05:27:20;4.60;;;1.00;;
37805;SDS011;25082;50.870;0.022;2023-11-18T05:29:46;3.45;;;0.88;;
37805;SDS011;25082;50.870;0.022;2023-11-18T05:32:19;1.70;;;0.70;;
37805;SDS011;25082;50.870;0.022;2023-11-18T05:34:48;3.28;;;0.77;;
37805;SDS011;25082;50.870;0.022;2023-11-18T05:37:15;2.53;;;0.80;;
37805;SDS011;25082;50.870;0.022;2023-11-18T05:39:43;3.03;;;0.55;;
37805;SDS011;25082;50.870;0.022;2023-11-18T05:42:10;2.55;;;0.80;;
37805;SDS011;25082;50.870;0.022;2023-11-18T05:44:36;3.40;;;1.00;;
37805;SDS011;25082;50.870;0.022;2023-11-18T05:47:04;2.20;;;0.93;;
37805;SDS011;25082;50.870;0.022;2023-11-18T05:49:32;3.63;;;1.17;;
37805;SDS011;25082;50.870;0.022;2023-11-18T05:51:58;3.33;;;0.75;;
37805;SDS011;25082;50.870;0.022;2023-11-18T05:54:24;1.55;;;0.70;;
37805;SDS011;25082;50.870;0.022;2023-11-18T05:56:50;6.32;;;1.58;;
37805;SDS011;25082;50.870;0.022;2023-11-18T05:59:16;2.58;;;0.82;;
37805;SDS011;25082;50.870;0.022;2023-11-18T06:01:42;3.40;;;0.80;;
37805;SDS011;25082;50.870;0.022;2023-11-18T06:04:08;2.75;;;0.77;;
37805;SDS011;25082;50.870;0.022;2023-11-18T06:06:33;1.20;;;0.55;;
37805;SDS011;25082;50.870;0.022;2023-11-18T06:08:59;2.58;;;0.70;;
37805;SDS011;25082;50.870;0.022;2023-11-18T06:11:29;2.53;;;0.85;;
37805;SDS011;25082;50.870;0.022;2023-11-18T06:14:00;2.80;;;0.85;;
37805;SDS011;25082;50.870;0.022;2023-11-18T06:16:26;2.08;;;0.65;;
37805;SDS011;25082;50.870;0.022;2023-11-18T06:18:54;1.42;;;0.77;;
37805;SDS011;25082;50.870;0.022;2023-11-18T06:21:21;2.30;;;0.68;;
37805;SDS011;25082;50.870;0.022;2023-11-18T06:23:53;1.38;;;0.63;;
37805;SDS011;25082;50.870;0.022;2023-11-18T06:26:20;1.75;;;0.70;;
37805;SDS011;25082;50.870;0.022;2023-11-18T06:28:47;2.97;;;0.73;;
37805;SDS011;25082;50.870;0.022;2023-11-18T06:31:16;2.45;;;0.52;;
37805;SDS011;25082;50.870;0.022;2023-11-18T06:33:43;3.55;;;0.50;;
37805;SDS011;25082;50.870;0.022;2023-11-18T06:38:47;3.25;;;0.57;;
37805;SDS011;25082;50.870;0.022;2023-11-18T06:41:15;2.22;;;0.70;;
37805;SDS011;25082;50.870;0.022;2023-11-18T06:43:42;3.38;;;0.52;;
37805;SDS011;25082;50.870;0.022;2023-11-18T06:46:28;2.53;;;0.70;;
37805;SDS011;25082;50.870;0.022;2023-11-18T06:48:58;2.03;;;0.75;;
37805;SDS011;25082;50.870;0.022;2023-11-18T06:51:28;3.13;;;0.77;;
37805;SDS011;25082;50.870;0.022;2023-11-18T06:53:56;1.73;;;0.40;;
37805;SDS011;25082;50.870;0.022;2023-11-18T06:56:26;2.38;;;0.57;;
37805;SDS011;25082;50.870;0.022;2023-11-18T06:58:53;2.97;;;1.00;;
37805;SDS011;25082;50.870;0.022;2023-11-18T07:01:19;1.75;;;0.70;;
37805;SDS011;25082;50.870;0.022;2023-11-18T07:03:45;1.35;;;0.50;;
37805;SDS011;25082;50.870;0.022;2023-11-18T07:06:18;0.85;;;0.50;;
37805;SDS011;25082;50.870;0.022;2023-11-18T07:08:48;2.28;;;0.57;;
37805;SDS011;25082;50.870;0.022;2023-11-18T07:11:14;2.45;;;1.00;;
37805;SDS011;25082;50.870;0.022;2023-11-18T07:13:41;1.25;;;0.38;;
37805;SDS011;25082;50.870;0.022;2023-11-18T07:16:07;2.63;;;0.65;;
37805;SDS011;25082;50.870;0.022;2023-11-18T07:18:37;0.95;;;0.50;;
37805;SDS011;25082;50.870;0.022;2023-11-18T07:21:04;2.00;;;0.63;;
37805;SDS011;25082;50.870;0.022;2023-11-18T07:23:30;0.68;;;0.55;;
37805;SDS011;25082;50.870;0.022;2023-11-18T07:25:56;2.35;;;0.77;;
37805;SDS011;25082;50.870;0.022;2023-11-18T07:28:23;1.83;;;0.55;;
37805;SDS011;25082;50.870;0.022;2023-11-18T07:30:49;1.92;;;0.50;;
37805;SDS011;25082;50.870;0.022;2023-11-18T07:33:16;1.48;;;0.40;;
37805;SDS011;25082;50.870;0.022;2023-11-18T07:35:44;3.85;;;0.60;;
37805;SDS011;25082;50.870;0.022;2023-11-18T07:38:11;1.85;;;0.50;;
37805;SDS011;25082;50.870;0.022;2023-11-18T07:40:38;2.50;;;0.70;;
37805;SDS011;25082;50.870;0.022;2023-11-18T07:43:10;1.10;;;0.52;;
37805;SDS011;25082;50.870;0.022;2023-11-18T07:45:36;0.93;;;0.45;;
37805;SDS011;25082;50.870;0.022;2023-11-18T07:48:06;1.10;;;0.45;;
37805;SDS011;25082;50.870;0.022;2023-11-18T07:50:35;3.35;;;0.90;;
37805;SDS011;25082;50.870;0.022;2023-11-18T07:53:02;2.20;;;0.75;;
37805;SDS011;25082;50.870;0.022;2023-11-18T07:55:30;2.10;;;0.60;;
37805;SDS011;25082;50.870;0.022;2023-11-18T07:57:59;1.50;;;0.70;;
37805;SDS011;25082;50.870;0.022;2023-11-18T08:00:26;2.08;;;0.60;;
37805;SDS011;25082;50.870;0.022;2023-11-18T08:02:56;4.85;;;1.33;;
37805;SDS011;25082;50.870;0.022;2023-11-18T08:05:22;3.08;;;0.55;;
37805;SDS011;25082;50.870;0.022;2023-11-18T08:07:49;4.68;;;0.50;;
37805;SDS011;25082;50.870;0.022;2023-11-18T08:10:14;3.72;;;0.70;;
37805;SDS011;25082;50.870;0.022;2023-11-18T08:12:43;2.50;;;0.63;;
37805;SDS011;25082;50.870;0.022;2023-11-18T08:15:10;2.55;;;0.60;;
37805;SDS011;25082;50.870;0.022;2023-11-18T08:17:36;3.10;;;1.30;;
37805;SDS011;25082;50.870;0.022;2023-11-18T08:20:02;3.33;;;0.70;;
37805;SDS011;25082;50.870;0.022;2023-11-18T08:22:39;6.45;;;1.08;;
37805;SDS011;25082;50.870;0.022;2023-11-18T08:25:06;3.47;;;0.80;;
37805;SDS011;25082;50.870;0.022;2023-11-18T08:27:34;3.55;;;0.98;;
37805;SDS011;25082;50.870;0.022;2023-11-18T08:30:00;4.15;;;1.40;;
37805;SDS011;25082;50.870;0.022;2023-11-18T08:32:30;1.75;;;0.57;;
37805;SDS011;25082;50.870;0.022;2023-11-18T08:34:56;3.08;;;1.05;;
37805;SDS011;25082;50.870;0.022;2023-11-18T08:37:22;3.65;;;0.80;;
37805;SDS011;25082;50.870;0.022;2023-11-18T08:39:48;3.78;;;0.85;;
37805;SDS011;25082;50.870;0.022;2023-11-18T08:42:13;2.83;;;1.23;;
37805;SDS011;25082;50.870;0.022;2023-11-18T08:44:39;4.07;;;1.02;;
37805;SDS011;25082;50.870;0.022;2023-11-18T08:47:05;5.28;;;1.58;;
37805;SDS011;25082;50.870;0.022;2023-11-18T08:49:33;3.42;;;0.70;;
37805;SDS011;25082;50.870;0.022;2023-11-18T08:51:59;3.58;;;1.23;;
37805;SDS011;25082;50.870;0.022;2023-11-18T08:54:26;2.63;;;1.00;;
37805;SDS011;25082;50.870;0.022;2023-11-18T08:57:01;1.75;;;0.60;;
37805;SDS011;25082;50.870;0.022;2023-11-18T08:59:45;1.85;;;0.88;;
37805;SDS011;25082;50.870;0.022;2023-11-18T09:02:10;4.53;;;0.93;;
37805;SDS011;25082;50.870;0.022;2023-11-18T09:04:40;5.30;;;1.13;;
37805;SDS011;25082;50.870;0.022;2023-11-18T09:07:08;4.15;;;0.93;;
37805;SDS011;25082;50.870;0.022;2023-11-18T09:09:35;2.28;;;0.80;;
37805;SDS011;25082;50.870;0.022;2023-11-18T09:12:04;2.05;;;0.70;;
37805;SDS011;25082;50.870;0.022;2023-11-18T09:14:30;2.95;;;0.73;;
37805;SDS011;25082;50.870;0.022;2023-11-18T09:16:56;2.83;;;1.05;;
37805;SDS011;25082;50.870;0.022;2023-11-18T09:19:24;3.92;;;1.15;;
37805;SDS011;25082;50.870;0.022;2023-11-18T09:21:50;3.35;;;1.05;;
37805;SDS011;25082;50.870;0.022;2023-11-18T09:24:17;4.20;;;1.50;;
37805;SDS011;25082;50.870;0.022;2023-11-18T09:26:45;4.35;;;1.20;;
37805;SDS011;25082;50.870;0.022;2023-11-18T09:29:15;3.05;;;0.90;;
37805;SDS011;25082;50.870;0.022;2023-11-18T09:31:45;5.47;;;1.35;;
37805;SDS011;25082;50.870;0.022;2023-11-18T09:34:14;3.58;;;1.20;;
37805;SDS011;25082;50.870;0.022;2023-11-18T09:36:42;2.58;;;1.00;;
37805;SDS011;25082;50.870;0.022;2023-11-18T09:39:09;3.55;;;1.05;;
37805;SDS011;25082;50.870;0.022;2023-11-18T09:41:55;7.68;;;1.60;;
37805;SDS011;25082;50.870;0.022;2023-11-18T09:44:22;4.10;;;1.23;;
37805;SDS011;25082;50.870;0.022;2023-11-18T09:46:54;7.80;;;1.75;;
37805;SDS011;25082;50.870;0.022;2023-11-18T09:49:29;10.13;;;1.55;;
37805;SDS011;25082;50.870;0.022;2023-11-18T09:52:04;2.83;;;1.05;;
37805;SDS011;25082;50.870;0.022;2023-11-18T09:54:39;4.05;;;1.10;;
37805;SDS011;25082;50.870;0.022;2023-11-18T09:57:16;4.40;;;1.23;;
37805;SDS011;25082;50.870;0.022;2023-11-18T09:59:58;5.28;;;1.33;;
37805;SDS011;25082;50.870;0.022;2023-11-18T10:02:50;7.80;;;1.73;;
37805;SDS011;25082;50.870;0.022;2023-11-18T10:05:16;6.13;;;1.00;;
37805;SDS011;25082;50.870;0.022;2023-11-18T10:07:51;4.90;;;1.20;;
37805;SDS011;25082;50.870;0.022;2023-11-18T10:10:18;4.45;;;0.90;;
37805;SDS011;25082;50.870;0.022;2023-11-18T10:12:51;7.40;;;1.88;;
37805;SDS011;25082;50.870;0.022;2023-11-18T10:15:18;6.00;;;1.50;;
37805;SDS011;25082;50.870;0.022;2023-11-18T10:17:48;6.80;;;1.80;;
37805;SDS011;25082;50.870;0.022;2023-11-18T10:23:15;9.05;;;1.15;;
37805;SDS011;25082;50.870;0.022;2023-11-18T10:25:49;5.10;;;1.15;;
37805;SDS011;25082;50.870;0.022;2023-11-18T10:30:48;6.32;;;1.70;;
37805;SDS011;25082;50.870;0.022;2023-11-18T10:33:16;4.57;;;1.73;;
37805;SDS011;25082;50.870;0.022;2023-11-18T10:35:52;5.78;;;1.52;;
37805;SDS011;25082;50.870;0.022;2023-11-18T10:38:20;16.08;;;2.30;;
37805;SDS011;25082;50.870;0.022;2023-11-18T10:40:51;4.32;;;1.45;;
37805;SDS011;25082;50.870;0.022;2023-11-18T10:43:21;10.10;;;1.95;;
37805;SDS011;25082;50.870;0.022;2023-11-18T10:46:11;4.55;;;1.20;;
37805;SDS011;25082;50.870;0.022;2023-11-18T10:48:38;6.82;;;1.48;;
37805;SDS011;25082;50.870;0.022;2023-11-18T10:51:06;4.68;;;1.50;;
37805;SDS011;25082;50.870;0.022;2023-11-18T10:53:36;6.00;;;1.42;;
37805;SDS011;25082;50.870;0.022;2023-11-18T10:56:17;3.08;;;1.48;;
37805;SDS011;25082;50.870;0.022;2023-11-18T10:58:51;4.88;;;2.00;;
37805;SDS011;25082;50.870;0.022;2023-11-18T11:01:30;3.10;;;1.20;;
37805;SDS011;25082;50.870;0.022;2023-11-18T11:03:57;5.07;;;1.20;;
37805;SDS011;25082;50.870;0.022;2023-11-18T11:06:24;3.90;;;1.38;;
37805;SDS011;25082;50.870;0.022;2023-11-18T11:08:51;3.85;;;1.17;;
37805;SDS011;25082;50.870;0.022;2023-11-18T11:11:20;4.40;;;1.15;;
37805;SDS011;25082;50.870;0.022;2023-11-18T11:13:57;4.80;;;1.73;;
37805;SDS011;25082;50.870;0.022;2023-11-18T11:16:30;5.40;;;1.13;;
37805;SDS011;25082;50.870;0.022;2023-11-18T11:19:08;4.43;;;1.55;;
37805;SDS011;25082;50.870;0.022;2023-11-18T11:22:00;4.25;;;1.70;;
37805;SDS011;25082;50.870;0.022;2023-11-18T11:30:14;4.70;;;1.48;;
37805;SDS011;25082;50.870;0.022;2023-11-18T11:32:53;4.53;;;1.00;;
37805;SDS011;25082;50.870;0.022;2023-11-18T11:35:42;4.75;;;1.27;;
37805;SDS011;25082;50.870;0.022;2023-11-18T11:38:13;8.27;;;1.25;;
37805;SDS011;25082;50.870;0.022;2023-11-18T11:40:41;5.50;;;1.10;;
37805;SDS011;25082;50.870;0.022;2023-11-18T11:43:09;7.10;;;1.95;;
37805;SDS011;25082;50.870;0.022;2023-11-18T11:45:36;3.55;;;1.50;;
37805;SDS011;25082;50.870;0.022;2023-11-18T11:48:04;6.00;;;1.38;;
37805;SDS011;25082;50.870;0.022;2023-11-18T11:53:30;4.30;;;1.40;;
37805;SDS011;25082;50.870;0.022;2023-11-18T11:56:04;5.15;;;0.98;;
37805;SDS011;25082;50.870;0.022;2023-11-18T11:58:34;3.22;;;0.88;;
37805;SDS011;25082;50.870;0.022;2023-11-18T12:01:37;4.00;;;1.05;;
37805;SDS011;25082;50.870;0.022;2023-11-18T12:04:08;3.72;;;1.23;;
37805;SDS011;25082;50.870;0.022;2023-11-18T12:06:45;4.45;;;1.15;;
37805;SDS011;25082;50.870;0.022;2023-11-18T12:09:12;3.85;;;1.40;;
37805;SDS011;25082;50.870;0.022;2023-11-18T12:11:44;4.30;;;1.00;;
37805;SDS011;25082;50.870;0.022;2023-11-18T12:17:04;3.00;;;1.27;;
37805;SDS011;25082;50.870;0.022;2023-11-18T12:19:35;3.92;;;0.90;;
37805;SDS011;25082;50.870;0.022;2023-11-18T12:22:11;4.50;;;1.23;;
37805;SDS011;25082;50.870;0.022;2023-11-18T12:24:42;2.60;;;0.88;;
37805;SDS011;25082;50.870;0.022;2023-11-18T12:41:05;3.85;;;1.15;;
37805;SDS011;25082;50.870;0.022;2023-11-18T12:49:02;5.13;;;1.38;;
37805;SDS011;25082;50.870;0.022;2023-11-18T12:51:30;3.30;;;1.40;;
37805;SDS011;25082;50.870;0.022;2023-11-18T12:53:59;3.00;;;0.75;;
37805;SDS011;25082;50.870;0.022;2023-11-18T12:56:27;3.08;;;0.90;;
37805;SDS011;25082;50.870;0.022;2023-11-18T12:58:55;2.22;;;0.90;;
37805;SDS011;25082;50.870;0.022;2023-11-18T13:01:22;2.30;;;1.02;;
37805;SDS011;25082;50.870;0.022;2023-11-18T13:03:48;3.63;;;1.27;;
37805;SDS011;25082;50.870;0.022;2023-11-18T13:06:13;1.42;;;0.70;;
37805;SDS011;25082;50.870;0.022;2023-11-18T13:08:40;4.18;;;1.13;;
37805;SDS011;25082;50.870;0.022;2023-11-18T13:11:06;4.07;;;1.52;;
37805;SDS011;25082;50.870;0.022;2023-11-18T13:13:37;2.88;;;1.00;;
37805;SDS011;25082;50.870;0.022;2023-11-18T13:16:05;2.15;;;1.00;;
37805;SDS011;25082;50.870;0.022;2023-11-18T13:18:46;3.40;;;1.08;;
37805;SDS011;25082;50.870;0.022;2023-11-18T13:21:17;3.60;;;1.15;;
37805;SDS011;25082;50.870;0.022;2023-11-18T13:23:52;1.83;;;0.90;;
37805;SDS011;25082;50.870;0.022;2023-11-18T13:26:19;3.03;;;1.33;;
37805;SDS011;25082;50.870;0.022;2023-11-18T13:28:46;1.50;;;0.77;;
37805;SDS011;25082;50.870;0.022;2023-11-18T13:31:13;2.55;;;0.90;;
37805;SDS011;25082;50.870;0.022;2023-11-18T13:33:47;2.97;;;1.10;;
37805;SDS011;25082;50.870;0.022;2023-11-18T13:36:14;3.47;;;1.35;;
37805;SDS011;25082;50.870;0.022;2023-11-18T13:38:40;5.45;;;1.23;;
37805;SDS011;25082;50.870;0.022;2023-11-18T13:41:09;7.00;;;1.30;;
37805;SDS011;25082;50.870;0.022;2023-11-18T13:43:43;1.30;;;0.60;;
37805;SDS011;25082;50.870;0.022;2023-11-18T13:46:11;2.97;;;0.85;;
37805;SDS011;25082;50.870;0.022;2023-11-18T13:48:46;4.35;;;1.40;;
37805;SDS011;25082;50.870;0.022;2023-11-18T13:51:14;2.53;;;1.00;;
37805;SDS011;25082;50.870;0.022;2023-11-18T13:53:41;2.47;;;0.77;;
37805;SDS011;25082;50.870;0.022;2023-11-18T13:56:09;2.63;;;0.73;;
37805;SDS011;25082;50.870;0.022;2023-11-18T13:58:36;3.30;;;0.93;;
37805;SDS011;25082;50.870;0.022;2023-11-18T14:01:08;4.43;;;1.10;;
37805;SDS011;25082;50.870;0.022;2023-11-18T14:06:06;4.80;;;1.17;;
37805;SDS011;25082;50.870;0.022;2023-11-18T14:11:04;2.33;;;1.00;;
37805;SDS011;25082;50.870;0.022;2023-11-18T14:13:33;2.63;;;0.80;;
37805;SDS011;25082;50.870;0.022;2023-11-18T14:16:00;3.25;;;0.80;;
37805;SDS011;25082;50.870;0.022;2023-11-18T14:18:26;3.58;;;1.15;;
37805;SDS011;25082;50.870;0.022;2023-11-18T14:20:52;2.53;;;1.13;;
37805;SDS011;25082;50.870;0.022;2023-11-18T14:23:20;5.80;;;1.35;;
37805;SDS011;25082;50.870;0.022;2023-11-18T14:25:47;6.43;;;1.25;;
37805;SDS011;25082;50.870;0.022;2023-11-18T14:28:13;15.48;;;1.67;;
37805;SDS011;25082;50.870;0.022;2023-11-18T14:30:39;4.10;;;1.05;;
37805;SDS011;25082;50.870;0.022;2023-11-18T14:33:08;5.40;;;1.25;;
37805;SDS011;25082;50.870;0.022;2023-11-18T14:35:33;5.63;;;1.25;;
37805;SDS011;25082;50.870;0.022;2023-11-18T14:38:00;3.78;;;1.35;;
37805;SDS011;25082;50.870;0.022;2023-11-18T14:40:26;6.18;;;1.20;;
37805;SDS011;25082;50.870;0.022;2023-11-18T14:42:53;6.60;;;1.60;;
37805;SDS011;25082;50.870;0.022;2023-11-18T14:45:19;3.53;;;1.17;;
37805;SDS011;25082;50.870;0.022;2023-11-18T14:47:46;4.03;;;1.15;;
37805;SDS011;25082;50.870;0.022;2023-11-18T14:50:13;4.82;;;1.20;;
37805;SDS011;25082;50.870;0.022;2023-11-18T14:52:47;7.78;;;1.38;;
37805;SDS011;25082;50.870;0.022;2023-11-18T14:57:42;4.85;;;1.20;;
37805;SDS011;25082;50.870;0.022;2023-11-18T15:00:12;3.03;;;1.48;;
37805;SDS011;25082;50.870;0.022;2023-11-18T15:02:45;4.95;;;1.40;;
37805;SDS011;25082;50.870;0.022;2023-11-18T15:05:11;5.80;;;1.63;;
37805;SDS011;25082;50.870;0.022;2023-11-18T15:07:37;3.97;;;1.45;;
37805;SDS011;25082;50.870;0.022;2023-11-18T15:10:04;5.05;;;1.27;;
37805;SDS011;25082;50.870;0.022;2023-11-18T15:12:31;3.70;;;1.50;;
37805;SDS011;25082;50.870;0.022;2023-11-18T15:14:57;3.88;;;1.10;;
37805;SDS011;25082;50.870;0.022;2023-11-18T15:17:25;3.90;;;1.50;;
37805;SDS011;25082;50.870;0.022;2023-11-18T15:19:50;4.55;;;1.60;;
37805;SDS011;25082;50.870;0.022;2023-11-18T15:22:16;4.45;;;1.25;;
37805;SDS011;25082;50.870;0.022;2023-11-18T15:24:42;10.57;;;1.73;;
37805;SDS011;25082;50.870;0.022;2023-11-18T15:27:08;6.80;;;1.25;;
37805;SDS011;25082;50.870;0.022;2023-11-18T15:29:33;5.90;;;1.40;;
37805;SDS011;25082;50.870;0.022;2023-11-18T15:32:03;6.60;;;1.50;;
37805;SDS011;25082;50.870;0.022;2023-11-18T15:34:29;8.20;;;1.90;;
37805;SDS011;25082;50.870;0.022;2023-11-18T15:36:56;5.22;;;1.90;;
37805;SDS011;25082;50.870;0.022;2023-11-18T15:39:25;5.63;;;1.48;;
37805;SDS011;25082;50.870;0.022;2023-11-18T15:41:51;7.78;;;1.90;;
37805;SDS011;25082;50.870;0.022;2023-11-18T15:44:17;4.45;;;1.55;;
37805;SDS011;25082;50.870;0.022;2023-11-18T15:46:48;7.38;;;1.55;;